Latest Weather Observations for Oakey

IDQ60901

Issued at 3:21 pm EST Friday 20 October 2017 (issued every 10 minutes, with the page automatically refreshed every 10 minutes)

About weather observations | Map of Brisbane area stations | Latest observations for Brisbane area | Other Formats
Station Details ID: 041359 Name: OAKEY AERO Lat: -27.40 Lon: 151.74 Height: 405.69 m
Data from the previous 72 hours. | See also: Recent months at Oakey
Date/Time
EST
Temp
°C
App
Temp
°C
Dew
Point
°C
Rel
Hum
%
Delta-T
°C
Wind Press
QNH
hPa
Press
MSL
hPa
Rain since
9am
mm
Dir  Spd
km/h
Gust
km/h
Spd
kts
Gust
kts
20/03:00pm 25.3 24.3 11.1 41 8.1 NNE 7 13 4 7 1017.7 1016.4 0.0
20/02:30pm 24.9 24.4 12.8 47 7.1 WNW 7 13 4 7 1018.4 1017.0 0.0
20/02:00pm 24.4 24.0 12.4 47 7.0 WSW 6 13 3 7 1018.9 1017.6 0.0
20/01:30pm 23.1 21.9 10.2 44 7.2 N 7 13 4 7 1019.6 1018.3 0.0
20/01:00pm 23.5 22.3 11.5 47 6.9 NW 9 17 5 9 1020.0 1018.7 0.0
20/12:30pm 23.4 21.3 11.1 46 7.0 W 13 17 7 9 1020.5 1019.2 0.0
20/12:00pm 23.2 21.8 12.2 50 6.3 N 11 17 6 9 1020.9 1019.5 0.0
20/11:30am 22.4 21.4 12.4 53 5.8 WNW 9 17 5 9 1021.3 1020.0 0.0
20/11:00am 22.5 21.7 13.0 55 5.5 NW 9 19 5 10 1021.6 1020.3 0.0
20/10:30am 23.1 21.9 14.1 57 5.4 NNE 13 20 7 11 1022.0 1020.7 0.0
20/10:00am 21.4 19.8 12.8 58 5.0 N 13 22 7 12 1022.4 1021.1 0.0
20/09:30am 20.5 18.6 13.0 62 4.3 NE 15 20 8 11 1022.6 1021.3 0.0
20/09:00am 20.8 18.1 13.0 61 4.5 NE 19 26 10 14 1022.8 1021.5 0.0
20/08:30am 19.6 17.6 14.0 70 3.3 NNE 17 22 9 12 1022.9 1021.6 0.0
20/08:00am 19.1 16.8 14.6 75 2.7 NNE 20 28 11 15 1022.7 1021.4 0.0
20/07:30am 17.9 17.3 15.7 87 1.3 NE 13 17 7 9 1022.5 1021.2 0.0
20/07:19am 17.6 16.5 15.4 87 1.3 ENE 15 19 8 10 1022.5 1021.2 0.0
20/07:00am 16.6 16.2 15.1 91 0.9 NE 11 15 6 8 1022.4 1021.1 0.0
20/06:30am 15.2 16.7 14.7 97 0.3 CALM 0 0 0 0 1022.7 1021.4 0.0
20/06:00am 13.1 13.9 12.6 97 0.3 CALM 0 0 0 0 1022.5 1021.2 0.0
20/05:30am 12.0 11.1 11.5 97 0.3 NE 7 9 4 5 1022.1 1020.8 0.0
20/05:00am 11.6 10.3 11.1 97 0.3 ESE 9 11 5 6 1021.9 1020.6 0.0
20/04:30am 12.4 10.9 11.9 97 0.3 E 11 11 6 6 1021.8 1020.5 0.0
20/04:00am 12.6 11.5 12.1 97 0.3 ESE 9 11 5 6 1021.7 1020.4 0.0
20/03:30am 13.4 13.9 12.9 97 0.3 E 2 7 1 4 1021.8 1020.5 0.0
20/03:00am 12.9 11.6 12.4 97 0.3 E 11 11 6 6 1021.7 1020.4 0.0
20/02:30am 13.5 12.4 13.0 97 0.3 E 11 13 6 7 1021.9 1020.6 0.0
20/02:00am 13.3 11.7 12.8 97 0.3 E 13 15 7 8 1022.2 1020.9 0.0
20/01:30am 13.3 11.7 12.7 96 0.3 ESE 13 15 7 8 1022.6 1021.3 0.0
20/01:00am 13.6 13.3 12.7 94 0.5 E 6 9 3 5 1022.8 1021.5 0.0
20/12:30am 14.3 12.8 13.2 93 0.6 E 13 15 7 8 1023.1 1021.9 0.0
20/12:00am 15.0 12.9 13.7 92 0.7 E 17 19 9 10 1023.7 1022.4 0.0
 
Date/Time
EST
Temp
°C
App
Temp
°C
Dew
Point
°C
Rel
Hum
%
Delta-T
°C
Wind Press
QNH
hPa
Press
MSL
hPa
Rain since
9am
mm
Dir  Spd
km/h
Gust
km/h
Spd
kts
Gust
kts
19/11:30pm 15.5 13.5 14.0 91 0.9 ENE 17 20 9 11 1024.3 1023.0 0.0
19/11:00pm 15.9 14.0 14.1 89 1.0 ENE 17 26 9 14 1024.6 1023.3 0.0
19/10:30pm 15.9 13.0 13.9 88 1.2 NE 22 26 12 14 1024.9 1023.6 0.0
19/10:00pm 16.3 14.1 14.3 88 1.2 NE 19 24 10 13 1025.0 1023.7 0.0
19/09:30pm 16.5 14.1 14.3 87 1.3 NE 20 24 11 13 1025.0 1023.7 0.0
19/09:00pm 16.7 14.8 14.2 85 1.4 ENE 17 20 9 11 1025.2 1023.9 0.0
19/08:30pm 17.1 16.0 14.4 84 1.6 ENE 13 17 7 9 1025.1 1023.8 0.0
19/08:00pm 17.9 15.1 14.4 80 2.0 ENE 22 32 12 17 1024.9 1023.6 0.0
19/07:30pm 18.0 16.8 15.1 83 1.7 ENE 15 19 8 10 1024.6 1023.3 0.0
19/07:00pm 18.4 16.2 14.9 80 2.1 ENE 20 28 11 15 1024.5 1023.2 0.0
19/06:30pm 19.3 16.6 14.6 74 2.8 ENE 22 26 12 14 1024.1 1022.8 0.0
19/06:00pm 19.7 16.1 14.3 71 3.2 E 26 32 14 17 1023.7 1022.4 0.0
19/05:30pm 20.5 17.4 14.4 68 3.6 E 24 30 13 16 1023.2 1022.0 0.0
19/05:00pm 21.3 16.5 14.0 63 4.3 ENE 32 41 17 22 1023.0 1021.7 0.0
19/04:30pm 22.3 18.7 14.2 60 4.8 ENE 26 32 14 17 1022.7 1021.4 0.0
19/04:00pm 23.2 20.1 14.5 58 5.2 ENE 24 35 13 19 1022.6 1021.3 0.0
19/03:30pm 22.4 19.1 14.0 59 5.0 E 24 35 13 19 1022.6 1021.3 0.0
19/03:00pm 22.8 19.9 15.1 62 4.7 ENE 24 30 13 16 1022.9 1021.6 0.0
19/02:30pm 21.9 19.1 15.3 66 4.0 ENE 24 35 13 19 1023.2 1022.0 0.0
19/02:00pm 21.2 17.0 14.6 66 3.9 E 30 37 16 20 1023.8 1022.5 0.0
19/01:30pm 21.3 17.4 15.4 69 3.6 E 30 39 16 21 1023.9 1022.6 0.0
19/01:00pm 21.8 18.4 15.9 69 3.6 E 28 37 15 20 1024.2 1022.9 0.0
19/12:30pm 21.7 17.4 15.3 67 3.9 ENE 32 39 17 21 1024.4 1023.1 0.0
19/12:00pm 21.6 17.8 15.7 69 3.6 E 30 37 16 20 1024.7 1023.4 0.0
19/11:30am 21.7 18.5 16.2 71 3.4 E 28 37 15 20 1024.9 1023.6 0.0
19/11:00am 20.1 15.7 15.1 73 3.0 E 32 41 17 22 1025.0 1023.7 0.0
19/10:30am 20.7 16.0 14.8 69 3.5 E 33 43 18 23 1025.2 1023.9 0.0
19/10:00am 20.3 16.1 14.7 70 3.3 E 30 39 16 21 1025.4 1024.2 0.0
19/09:30am 20.3 16.1 14.7 70 3.3 E 30 41 16 22 1025.6 1024.4 0.0
19/09:00am 20.2 14.9 14.3 69 3.5 E 35 44 19 24 1025.7 1024.5 0.0
19/08:30am 19.8 14.3 14.6 72 3.1 E 37 50 20 27 1025.7 1024.5 0.0
19/08:00am 19.3 13.8 14.8 75 2.7 E 37 48 20 26 1025.7 1024.5 0.0
19/07:38am 18.3 13.1 14.4 78 2.3 E 35 44 19 24 1025.7 1024.5 0.0
19/07:30am 18.8 14.2 14.7 77 2.4 E 32 41 17 22 1025.6 1024.4 0.0
19/07:00am 17.6 13.8 14.7 83 1.7 E 28 35 15 19 1025.5 1024.3 0.0
19/06:35am 17.3 13.5 14.8 85 1.5 E 28 33 15 18 1025.3 1024.1 0.0
19/06:30am 17.1 14.1 14.9 87 1.3 E 24 32 13 17 1025.3 1024.1 0.0
19/06:06am 16.5 14.2 14.7 89 1.1 ESE 20 26 11 14 1025.1 1023.8 0.0
19/06:00am 16.6 14.0 14.8 89 1.1 E 22 28 12 15 1025.1 1023.8 0.0
19/05:34am 16.0 13.8 14.4 90 0.9 ESE 19 26 10 14 1024.9 1023.6 0.0
19/05:30am 16.1 13.9 14.5 90 0.9 ESE 19 26 10 14 1024.9 1023.6 0.0
19/05:00am 16.4 14.3 14.8 90 0.9 E 19 24 10 13 1024.8 1023.5 0.0
19/04:32am 16.2 14.2 14.9 92 0.8 E 19 24 10 13 1024.6 1023.3 0.0
19/04:30am 16.2 14.2 14.9 92 0.8 E 19 24 10 13 1024.6 1023.3 0.0
19/04:24am 16.2 14.3 15.1 93 0.6 E 19 24 10 13 1024.6 1023.3 0.0
19/04:14am 16.2 13.6 14.9 92 0.8 E 22 32 12 17 1024.5 1023.2 0.0
19/04:00am 16.4 13.8 14.8 90 0.9 E 22 28 12 15 1024.4 1023.1 0.0
19/03:49am 16.5 14.5 14.9 90 0.9 E 19 26 10 14 1024.4 1023.1 0.0
19/03:45am 16.4 14.2 14.8 90 0.9 E 20 24 11 13 1024.4 1023.1 0.0
19/03:30am 16.4 13.8 14.8 90 0.9 E 22 30 12 16 1024.4 1023.1 0.0
19/03:27am 16.4 14.2 14.8 90 0.9 E 20 28 11 15 1024.4 1023.1 0.0
19/03:00am 16.5 14.9 15.0 91 0.9 E 17 24 9 13 1024.3 1023.0 0.0
19/02:43am 16.4 14.8 14.9 91 0.9 E 17 22 9 12 1024.2 1022.9 0.0
19/02:30am 16.4 14.2 14.9 91 0.9 E 20 28 11 15 1024.2 1022.9 0.0
19/02:27am 16.3 13.7 14.8 91 0.9 E 22 28 12 15 1024.2 1022.9 0.0
19/02:00am 16.6 13.7 15.0 90 0.9 E 24 32 13 17 1024.4 1023.1 0.0
19/01:30am 16.4 14.3 15.1 92 0.8 E 20 30 11 16 1024.6 1023.3 0.0
19/01:00am 16.6 14.0 15.0 90 0.9 E 22 33 12 18 1024.8 1023.5 0.0
19/12:48am 16.6 13.3 15.0 90 0.9 E 26 32 14 17 1024.8 1023.5 0.0
19/12:45am 16.6 12.8 14.8 89 1.1 E 28 33 15 18 1024.8 1023.5 0.0
19/12:32am 16.7 13.0 14.9 89 1.1 E 28 37 15 20 1025.0 1023.7 0.0
19/12:30am 16.7 12.9 14.7 88 1.2 E 28 37 15 20 1025.0 1023.7 0.0
19/12:10am 16.8 13.1 15.0 89 1.1 E 28 35 15 19 1025.1 1023.8 0.0
19/12:00am 16.7 13.7 14.9 89 1.1 E 24 37 13 20 1025.3 1024.1 0.0
 
Date/Time
EST
Temp
°C
App
Temp
°C
Dew
Point
°C
Rel
Hum
%
Delta-T
°C
Wind Press
QNH
hPa
Press
MSL
hPa
Rain since
9am
mm
Dir  Spd
km/h
Gust
km/h
Spd
kts
Gust
kts
18/11:30pm 16.6 13.4 15.3 92 0.8 E 26 35 14 19 1025.5 1024.3 0.0
18/11:00pm 16.8 13.7 15.7 93 0.7 E 26 32 14 17 1025.5 1024.3 0.0
18/10:30pm 16.7 13.5 15.4 92 0.8 E 26 35 14 19 1025.8 1024.6 0.0
18/10:00pm 17.0 12.7 15.3 90 1.0 E 32 39 17 21 1025.7 1024.5 0.0
18/09:30pm 16.8 14.1 15.7 93 0.7 E 24 33 13 18 1025.6 1024.4 0.0
18/09:00pm 16.9 14.2 15.6 92 0.8 E 24 30 13 16 1025.5 1024.3 0.0
18/08:30pm 17.0 13.8 15.3 90 1.0 E 26 33 14 18 1025.3 1024.1 0.0
18/08:00pm 17.1 13.1 15.1 88 1.2 E 30 39 16 21 1025.0 1023.7 0.0
18/07:30pm 17.2 12.8 15.2 88 1.2 E 32 41 17 22 1024.7 1023.4 0.0
18/07:00pm 17.6 13.5 15.0 85 1.5 E 30 43 16 23 1024.5 1023.2 0.0
18/06:30pm 18.1 14.4 15.0 82 1.8 E 28 37 15 20 1024.0 1022.7 0.0
18/06:00pm 18.2 14.8 14.7 80 2.1 E 26 35 14 19 1023.8 1022.5 0.0
18/05:30pm 18.6 14.2 15.1 80 2.1 E 32 39 17 21 1023.2 1022.0 0.0
18/05:00pm 18.9 14.8 15.0 78 2.3 E 30 39 16 21 1023.1 1021.9 0.0
18/04:30pm 19.2 14.9 15.3 78 2.3 E 32 41 17 22 1022.8 1021.5 0.0
18/04:00pm 19.4 14.5 15.3 77 2.5 E 35 43 19 23 1022.6 1021.3 0.0
18/03:30pm 19.3 13.5 15.0 76 2.6 E 39 48 21 26 1022.4 1021.1 0.0
18/03:00pm 19.9 15.0 15.3 75 2.8 E 35 50 19 27 1022.4 1021.1 0.0
18/02:30pm 20.4 16.1 15.8 75 2.8 E 33 46 18 25 1022.8 1021.5 0.0
18/02:00pm 20.3 14.1 15.9 76 2.7 ESE 43 56 23 30 1023.1 1021.9 0.0
18/01:30pm 20.3 15.0 16.3 78 2.4 ESE 39 50 21 27 1023.2 1022.0 0.0
18/01:00pm 19.3 13.5 16.0 81 2.0 ESE 41 56 22 30 1023.4 1022.1 0.0
18/12:30pm 20.8 16.8 16.8 78 2.5 ESE 33 44 18 24 1023.6 1022.3 0.0
18/12:00pm 21.7 16.3 17.9 79 2.4 E 43 61 23 33 1023.8 1022.5 0.0
18/11:51am 20.5 14.3 15.9 75 2.8 E 43 61 23 33 1023.7 1022.4 0.0
18/11:30am 19.5 14.3 16.5 83 1.8 ESE 39 46 21 25 1024.1 1022.8 0.0
18/11:00am 19.9 14.2 16.3 80 2.2 ESE 41 57 22 31 1024.2 1022.9 0.0
18/10:30am 19.2 13.9 16.2 83 1.8 E 39 52 21 28 1024.4 1023.1 0.0
18/10:00am 19.6 13.3 16.1 80 2.1 ESE 44 57 24 31 1024.2 1022.9 0.0
18/09:30am 19.1 13.3 16.0 82 1.9 ESE 41 57 22 31 1024.3 1023.0 0.0
18/09:00am 19.1 12.7 16.0 82 1.9 ESE 44 57 24 31 1024.2 1022.9 0.0
18/08:30am 18.9 12.4 15.6 81 2.0 E 44 59 24 32 1023.9 1022.6 0.0
18/08:00am 18.0 12.0 15.4 85 1.5 ESE 41 54 22 29 1023.6 1022.3 0.0
18/07:30am 17.7 11.3 15.5 87 1.3 ESE 43 57 23 31 1023.1 1021.9 0.0
18/07:00am 16.9 10.3 14.9 88 1.2 ESE 43 57 23 31 1022.8 1021.5 0.0
18/06:30am 16.6 10.4 14.8 89 1.1 ESE 41 57 22 31 1022.4 1021.1 0.0
18/06:28am 16.6 10.7 14.8 89 1.1 ESE 39 57 21 31 1022.4 1021.1 0.0
18/06:00am 16.2 10.8 14.9 92 0.8 ESE 37 46 20 25 1022.1 1020.8 0.0
18/05:30am 16.1 10.9 14.6 91 0.9 ESE 35 50 19 27 1021.9 1020.6 0.0
18/05:00am 15.9 10.0 14.6 92 0.8 ESE 39 52 21 28 1021.6 1020.3 0.0
18/04:30am 16.0 11.2 14.7 92 0.8 ESE 33 41 18 22 1021.6 1020.3 0.0
18/04:00am 16.0 11.2 14.7 92 0.8 ESE 33 41 18 22 1021.5 1020.2 0.0
18/03:30am 16.1 11.6 15.0 93 0.6 ESE 32 43 17 23 1021.4 1020.1 0.0
18/03:00am 16.2 11.7 14.9 92 0.8 ESE 32 43 17 23 1021.2 1019.9 0.0
18/02:30am 16.1 12.4 15.0 93 0.6 ESE 28 39 15 21 1021.4 1020.1 0.0
18/02:00am 16.2 12.5 14.9 92 0.8 ESE 28 35 15 19 1021.7 1020.4 0.0
18/01:30am 16.3 10.4 14.8 91 0.9 ESE 39 46 21 25 1021.6 1020.3 0.0
18/01:06am 16.3 10.4 14.8 91 0.9 ESE 39 57 21 31 1021.6 1020.3 0.0
18/01:00am 16.4 10.2 14.8 90 0.9 E 41 57 22 31 1021.6 1020.3 0.0
18/12:30am 16.1 11.5 15.1 94 0.6 ESE 33 43 18 23 1021.7 1020.4 0.0
18/12:00am 16.2 10.8 15.1 93 0.6 ESE 37 52 20 28 1022.2 1020.9 0.0
 
Date/Time
EST
Temp
°C
App
Temp
°C
Dew
Point
°C
Rel
Hum
%
Delta-T
°C
Wind Press
QNH
hPa
Press
MSL
hPa
Rain since
9am
mm
Dir  Spd
km/h
Gust
km/h
Spd
kts
Gust
kts
17/11:30pm 16.3 11.3 15.0 92 0.8 ESE 35 46 19 25 1022.3 1021.0 0.0
17/11:00pm 16.4 11.0 15.1 92 0.8 ESE 37 48 20 26 1022.8 1021.5 0.0
17/10:48pm 16.3 11.4 15.3 94 0.6 ESE 35 48 19 26 1022.8 1021.5 0.0
17/10:30pm 16.2 10.5 15.2 94 0.6 ESE 39 50 21 27 1022.8 1021.5 0.0
17/10:24pm 16.3 10.2 15.2 93 0.6 ESE 41 56 22 30 1022.8 1021.5 0.0
17/10:00pm 16.6 11.2 15.1 91 0.9 ESE 37 46 20 25 1022.9 1021.6 0.0
17/09:30pm 16.8 10.7 15.2 90 0.9 ESE 41 52 22 28 1022.7 1021.4 0.0
17/09:00pm 16.9 11.6 15.2 90 1.0 ESE 37 48 20 26 1022.5 1021.2 0.0
17/08:30pm 16.8 10.7 15.3 91 0.9 ESE 41 54 22 29 1022.3 1021.0 0.0
17/08:18pm 16.7 10.4 15.6 93 0.7 ESE 43 56 23 30 1022.2 1020.9 0.0
17/08:00pm 16.8 11.7 15.7 93 0.7 ESE 37 48 20 26 1022.3 1021.0 0.0
17/07:59pm 16.8 11.7 15.7 93 0.7 ESE 37 48 20 26 1022.3 1021.0 0.0
17/07:52pm 16.8 10.9 15.7 93 0.7 ESE 41 50 22 27 1022.1 1020.8 0.0
17/07:35pm 16.8 10.9 15.8 94 0.6 ESE 41 52 22 28 1022.1 1020.8 0.0
17/07:30pm 16.8 11.3 15.8 94 0.6 ESE 39 48 21 26 1022.2 1020.9 0.0
17/07:00pm 16.8 11.3 15.7 93 0.7 ESE 39 52 21 28 1021.6 1020.3 0.0
17/06:30pm 16.9 11.3 15.4 91 0.9 ESE 39 61 21 33 1021.4 1020.1 0.0
17/06:29pm 16.9 11.7 15.6 92 0.8 ESE 37 61 20 33 1021.4 1020.1 0.0
17/06:00pm 16.8 12.1 15.8 94 0.6 ESE 35 44 19 24 1021.2 1019.9 0.0
17/05:43pm 16.9 13.6 16.1 95 0.5 ESE 28 37 15 20 1021.3 1020.0 0.0
17/05:30pm 16.9 12.7 16.1 95 0.5 ESE 33 41 18 22 1021.1 1019.8 0.0
17/05:16pm 17.1 12.5 16.1 94 0.6 ESE 35 46 19 25 1021.0 1019.7 0.0
17/05:09pm 17.1 12.9 16.1 94 0.6 ESE 33 43 18 23 1020.9 1019.5 0.0
17/05:00pm 17.1 12.5 16.1 94 0.6 ESE 35 46 19 25 1020.8 1019.4 0.0
17/04:45pm 17.1 12.9 16.1 94 0.6 ESE 33 44 18 24 1020.5 1019.2 0.0
17/04:30pm 17.4 12.8 16.1 92 0.8 ESE 35 44 19 24 1020.1 1018.8 0.0
17/04:03pm 17.5 13.6 16.4 93 0.7 ESE 32 50 17 27 1020.0 1018.7 0.0
17/04:00pm 17.6 13.1 16.3 92 0.8 ESE 35 50 19 27 1019.9 1018.6 0.0
17/03:30pm 17.5 12.2 16.4 93 0.7 ESE 39 50 21 27 1019.6 1018.3 0.0

Latest Capital City Observations: Canberra | Sydney | Melbourne | Brisbane | Adelaide | Perth | Hobart | Darwin

Other Formats:

Comma delimited format used in spreadsheet applications
http://www.bom.gov.au/fwo/IDQ60901/IDQ60901.94552.axf

JavaScript Object Notation format (JSON) in row-major order
http://www.bom.gov.au/fwo/IDQ60901/IDQ60901.94552.json